Time;durP1;ratioP1;P1;durP2;ratioP2;P2;SDS_P1;SDS_P2;PMS_P1;PMS_P2;Temp;Humidity;BMP_temperature;BMP_pressure;BME280_temperature;BME280_humidity;BME280_pressure;Samples;Min_cycle;Max_cycle;Signal;HPM_P1;HPM_P2
2021/01/19 00:00:20;;;;;;;7.07;4.63;;;;;;;-145.92;100.00;59847.09;1024543;28;20034;-74
2021/01/19 00:00:51;;;;;;;8.80;4.57;;;;;;;-145.92;100.00;59847.09;1028424;28;20050;-74
2021/01/19 00:01:22;;;;;;;6.35;4.10;;;;;;;-145.92;100.00;59847.09;1024428;28;20297;-74
2021/01/19 00:01:52;;;;;;;7.63;4.78;;;;;;;-145.92;100.00;59847.09;1024468;28;20110;-74
2021/01/19 00:02:23;;;;;;;6.78;4.28;;;;;;;-145.92;100.00;59847.09;1024376;29;20023;-74
2021/01/19 00:02:54;;;;;;;6.88;4.30;;;;;;;-145.92;100.00;59847.09;1028556;28;20550;-74
2021/01/19 00:03:25;;;;;;;6.57;4.53;;;;;;;-145.92;100.00;59847.09;1024387;29;20106;-74
2021/01/19 00:03:56;;;;;;;7.55;4.05;;;;;;;-145.92;100.00;59847.09;1028253;28;20520;-74
2021/01/19 00:04:27;;;;;;;8.32;5.10;;;;;;;-145.92;100.00;59847.09;1024475;29;20517;-75
2021/01/19 00:05:00;;;;;;;7.03;4.20;;;;;;;-145.92;100.00;59847.09;1032388;28;20254;-74
2021/01/19 00:05:31;;;;;;;7.75;4.47;;;;;;;-145.92;100.00;59847.09;1028543;28;20050;-74
2021/01/19 00:06:04;;;;;;;8.05;4.20;;;;;;;-145.92;100.00;59847.09;1036487;28;20255;-74
2021/01/19 00:06:36;;;;;;;8.35;4.50;;;;;;;-145.92;100.00;59847.09;1020588;29;20307;-74
2021/01/19 00:07:07;;;;;;;6.90;4.25;;;;;;;-145.92;100.00;59847.09;1036503;28;20731;-74
2021/01/19 00:07:38;;;;;;;5.90;3.85;;;;;;;-145.92;100.00;59847.09;1024477;28;20285;-75
2021/01/19 00:08:09;;;;;;;6.32;4.50;;;;;;;-145.92;100.00;59847.09;1032551;28;20015;-75
2021/01/19 00:08:39;;;;;;;6.30;4.53;;;;;;;-145.92;100.00;59847.09;1028355;28;20030;-74
2021/01/19 00:09:10;;;;;;;8.57;4.07;;;;;;;-145.92;100.00;59847.09;1032702;28;20082;-74
2021/01/19 00:09:41;;;;;;;6.65;4.45;;;;;;;-145.92;100.00;59847.09;1020402;29;20075;-74
2021/01/19 00:10:12;;;;;;;8.52;4.57;;;;;;;-145.92;100.00;59847.09;1036640;28;20078;-74
2021/01/19 00:10:43;;;;;;;7.32;4.95;;;;;;;-145.92;100.00;59847.09;1032344;28;20018;-74
2021/01/19 00:11:13;;;;;;;8.65;4.30;;;;;;;-145.92;100.00;59847.09;1028503;28;20262;-74
2021/01/19 00:11:44;;;;;;;7.65;4.07;;;;;;;-145.92;100.00;59847.09;1032310;28;20030;-74
2021/01/19 00:12:15;;;;;;;8.43;4.50;;;;;;;-145.92;100.00;59847.09;1036303;28;20105;-74
2021/01/19 00:12:45;;;;;;;8.10;4.07;;;;;;;-145.92;100.00;59847.09;1028456;28;20093;-74
2021/01/19 00:13:20;;;;;;;7.50;4.80;;;;;;;-145.92;100.00;59847.09;1024301;28;20061;-74
2021/01/19 00:13:50;;;;;;;6.88;4.13;;;;;;;-145.92;100.00;59847.09;1032149;28;20050;-74
2021/01/19 00:14:21;;;;;;;7.35;4.30;;;;;;;-145.92;100.00;59847.09;1028203;28;20254;-74
2021/01/19 00:14:53;;;;;;;7.88;4.50;;;;;;;-145.92;100.00;59847.09;1028176;28;20073;-75
2021/01/19 00:15:24;;;;;;;7.20;4.43;;;;;;;-145.92;100.00;59847.09;1032294;28;20435;-74
2021/01/19 00:15:54;;;;;;;9.38;4.85;;;;;;;-145.92;100.00;59847.09;1028395;28;20330;-74
2021/01/19 00:16:25;;;;;;;7.88;4.28;;;;;;;-145.92;100.00;59847.09;1032314;28;20018;-74
2021/01/19 00:16:56;;;;;;;7.20;4.15;;;;;;;-145.92;100.00;59847.09;1036313;28;20018;-74
2021/01/19 00:17:27;;;;;;;8.55;4.63;;;;;;;-145.92;100.00;59847.09;1036133;28;20018;-74
2021/01/19 00:17:58;;;;;;;6.32;4.50;;;;;;;-145.92;100.00;59847.09;1028330;28;20026;-74
2021/01/19 00:18:28;;;;;;;10.18;5.32;;;;;;;-145.92;100.00;59847.09;1032399;28;20014;-74
2021/01/19 00:18:59;;;;;;;7.57;4.40;;;;;;;-145.92;100.00;59847.09;1028405;28;20023;-74
2021/01/19 00:19:30;;;;;;;7.38;4.70;;;;;;;-145.92;100.00;59847.09;1032342;28;20049;-74
2021/01/19 00:20:01;;;;;;;7.35;4.35;;;;;;;-145.92;100.00;59847.09;1028158;28;20031;-74
2021/01/19 00:20:31;;;;;;;10.35;4.70;;;;;;;-145.92;100.00;59847.09;1024421;29;20015;-74
2021/01/19 00:21:02;;;;;;;8.55;4.03;;;;;;;-145.92;100.00;59847.09;1028341;28;20278;-74
2021/01/19 00:21:34;;;;;;;8.88;4.60;;;;;;;-145.92;100.00;59847.09;1016310;28;20421;-74
2021/01/19 00:22:04;;;;;;;7.47;4.05;;;;;;;-145.92;100.00;59847.09;1032388;28;20261;-74
2021/01/19 00:22:35;;;;;;;5.90;4.00;;;;;;;-145.92;100.00;59847.09;1020226;29;20304;-75
2021/01/19 00:23:06;;;;;;;8.38;4.80;;;;;;;-145.92;100.00;59847.09;1028374;28;20023;-74
2021/01/19 00:23:37;;;;;;;7.32;4.35;;;;;;;-145.92;100.00;59847.09;1032339;28;20120;-74
2021/01/19 00:24:08;;;;;;;7.15;4.45;;;;;;;-145.92;100.00;59847.09;1040578;28;20033;-74
2021/01/19 00:24:39;;;;;;;7.50;4.72;;;;;;;-145.92;100.00;59847.09;1032462;28;20289;-74
2021/01/19 00:25:11;;;;;;;9.15;4.82;;;;;;;-145.92;100.00;59847.09;1036627;28;20033;-75
2021/01/19 00:25:42;;;;;;;9.27;4.68;;;;;;;-145.92;100.00;59847.09;1028214;28;20026;-74
2021/01/19 00:26:13;;;;;;;7.95;4.80;;;;;;;-145.92;100.00;59847.09;1032291;28;20273;-74
2021/01/19 00:26:44;;;;;;;8.00;4.45;;;;;;;-145.92;100.00;59847.09;1040494;28;20279;-74
2021/01/19 00:27:15;;;;;;;8.02;4.82;;;;;;;-145.92;100.00;59847.09;1028397;28;20051;-75
2021/01/19 00:27:45;;;;;;;8.70;5.00;;;;;;;-145.92;100.00;59847.09;1032220;28;20434;-74
2021/01/19 00:28:16;;;;;;;7.22;4.35;;;;;;;-145.92;100.00;59847.09;1024537;29;20101;-74
2021/01/19 00:28:47;;;;;;;9.25;5.38;;;;;;;-145.92;100.00;59847.09;1036329;28;20450;-74
2021/01/19 00:29:18;;;;;;;7.75;4.78;;;;;;;-145.92;100.00;59847.09;1028298;28;20475;-74
2021/01/19 00:29:49;;;;;;;9.35;4.80;;;;;;;-145.92;100.00;59847.09;1036234;28;20263;-74
2021/01/19 00:30:20;;;;;;;7.30;4.57;;;;;;;-145.92;100.00;59847.09;1028435;28;20022;-75
2021/01/19 00:30:51;;;;;;;8.57;4.32;;;;;;;-145.92;100.00;59847.09;1032372;28;20066;-74
2021/01/19 00:31:22;;;;;;;7.85;4.38;;;;;;;-145.92;100.00;59847.09;1028037;28;20345;-74
2021/01/19 00:31:53;;;;;;;8.27;4.78;;;;;;;-145.92;100.00;59847.09;1024115;29;20035;-74
2021/01/19 00:32:24;;;;;;;7.40;4.35;;;;;;;-145.92;100.00;59847.09;1024201;28;20400;-74
2021/01/19 00:32:55;;;;;;;8.15;4.57;;;;;;;-145.92;100.00;59847.09;1028256;28;20426;-74
2021/01/19 00:33:26;;;;;;;6.72;4.15;;;;;;;-145.92;100.00;59847.09;1036320;28;20395;-74
2021/01/19 00:33:56;;;;;;;7.40;4.88;;;;;;;-145.92;100.00;59847.09;1024305;29;20027;-75
2021/01/19 00:34:27;;;;;;;7.38;4.35;;;;;;;-145.92;100.00;59847.09;1028145;28;20033;-74
2021/01/19 00:34:58;;;;;;;7.90;4.43;;;;;;;-145.92;100.00;59847.09;1024370;29;20023;-75
2021/01/19 00:35:29;;;;;;;9.27;4.75;;;;;;;-145.92;100.00;59847.09;1032401;28;20026;-74
2021/01/19 00:36:00;;;;;;;8.63;4.53;;;;;;;-145.92;100.00;59847.09;1028166;28;20023;-74
2021/01/19 00:36:31;;;;;;;9.02;4.53;;;;;;;-145.92;100.00;59847.09;1028413;28;20027;-74
2021/01/19 00:37:01;;;;;;;7.75;4.50;;;;;;;-145.92;100.00;59847.09;1024329;28;20100;-74
2021/01/19 00:37:32;;;;;;;6.82;4.15;;;;;;;-145.92;100.00;59847.09;1032322;28;20029;-74
2021/01/19 00:38:04;;;;;;;6.60;4.22;;;;;;;-145.92;100.00;59847.09;1032324;28;20049;-74
2021/01/19 00:38:36;;;;;;;7.53;4.30;;;;;;;-145.92;100.00;59847.09;1028647;28;20066;-74
2021/01/19 00:39:08;;;;;;;7.03;4.55;;;;;;;-145.92;100.00;59847.09;1032252;28;20257;-74
2021/01/19 00:39:39;;;;;;;7.00;5.03;;;;;;;-145.92;100.00;59847.09;1032354;28;20356;-74
2021/01/19 00:40:10;;;;;;;8.48;5.22;;;;;;;-145.92;100.00;59847.09;1028230;28;20266;-74
2021/01/19 00:40:41;;;;;;;9.10;5.10;;;;;;;-145.92;100.00;59847.09;1036384;28;20498;-75
2021/01/19 00:41:12;;;;;;;7.85;4.47;;;;;;;-145.92;100.00;59847.09;1032286;28;20368;-75
2021/01/19 00:41:43;;;;;;;7.00;5.03;;;;;;;-145.92;100.00;59847.09;1032240;28;20029;-74
2021/01/19 00:42:15;;;;;;;9.60;4.82;;;;;;;-145.92;100.00;59847.09;1024134;29;20093;-74
2021/01/19 00:42:45;;;;;;;8.68;4.80;;;;;;;-145.92;100.00;59847.09;1028238;28;20022;-74
2021/01/19 00:43:16;;;;;;;6.50;4.32;;;;;;;-145.92;100.00;59847.09;1020435;29;20260;-74
2021/01/19 00:43:47;;;;;;;8.10;4.55;;;;;;;-145.92;100.00;59847.09;1028297;28;20121;-74
2021/01/19 00:44:18;;;;;;;8.05;4.82;;;;;;;-145.92;100.00;59847.09;1028106;28;20027;-74
2021/01/19 00:44:49;;;;;;;6.28;4.30;;;;;;;-145.92;100.00;59847.09;1032401;28;20027;-75
2021/01/19 00:45:20;;;;;;;7.13;4.90;;;;;;;-145.92;100.00;59847.09;1032254;28;20027;-75
2021/01/19 00:45:51;;;;;;;8.43;5.03;;;;;;;-145.92;100.00;59847.09;1028148;28;20022;-74
2021/01/19 00:46:22;;;;;;;8.57;4.80;;;;;;;-145.92;100.00;59847.09;1032078;28;20267;-75
2021/01/19 00:46:54;;;;;;;8.27;4.50;;;;;;;-145.92;100.00;59847.09;1028294;28;20049;-74
2021/01/19 00:48:14;;;;;;;9.68;4.85;;;;;;;-145.92;100.00;59847.09;1031913;28;20729;-74
2021/01/19 00:48:45;;;;;;;7.38;4.88;;;;;;;-145.92;100.00;59847.09;1028217;28;20282;-74
2021/01/19 00:49:17;;;;;;;9.57;4.97;;;;;;;-145.92;100.00;59847.09;1024325;28;20042;-74
2021/01/19 00:49:48;;;;;;;9.63;4.72;;;;;;;-145.92;100.00;59847.09;1024215;29;20488;-74
2021/01/19 00:50:19;;;;;;;8.60;5.25;;;;;;;-145.92;100.00;59847.09;1028101;28;20317;-74
2021/01/19 00:50:50;;;;;;;8.05;4.93;;;;;;;-145.92;100.00;59847.09;1028276;28;20054;-74
2021/01/19 00:51:21;;;;;;;9.85;5.82;;;;;;;-145.92;100.00;59847.09;1024263;29;20263;-74
2021/01/19 00:51:52;;;;;;;8.48;4.82;;;;;;;-145.92;100.00;59847.09;1028206;28;20290;-74
2021/01/19 00:52:23;;;;;;;10.75;5.55;;;;;;;-145.92;100.00;59847.09;1020100;29;20445;-74
2021/01/19 00:52:53;;;;;;;9.82;5.35;;;;;;;-145.92;100.00;59847.09;1032253;28;20014;-74
2021/01/19 00:53:24;;;;;;;8.20;4.90;;;;;;;-145.92;100.00;59847.09;1028203;28;20118;-74
2021/01/19 00:53:56;;;;;;;6.53;4.68;;;;;;;-145.92;100.00;59847.09;1028180;28;20023;-74
2021/01/19 00:54:26;;;;;;;8.50;5.40;;;;;;;-145.92;100.00;59847.09;1028098;28;20127;-74
2021/01/19 00:54:57;;;;;;;9.10;4.97;;;;;;;-145.92;100.00;59847.09;1032383;28;20295;-74
2021/01/19 00:55:28;;;;;;;8.73;5.20;;;;;;;-145.92;100.00;59847.09;1028432;28;20050;-74
2021/01/19 00:55:59;;;;;;;13.05;5.45;;;;;;;-145.92;100.00;59847.09;1028493;28;20101;-74
2021/01/19 00:56:40;;;;;;;8.40;4.57;;;;;;;-145.92;100.00;59847.09;1036231;28;20474;-74
2021/01/19 00:57:11;;;;;;;10.60;4.80;;;;;;;-145.92;100.00;59847.09;1020314;29;20024;-74
2021/01/19 00:57:44;;;;;;;8.18;5.47;;;;;;;-145.92;100.00;59847.09;1028118;28;20277;-74
2021/01/19 00:58:15;;;;;;;9.27;4.88;;;;;;;-145.92;100.00;59847.09;1020192;28;20028;-74
2021/01/19 00:58:46;;;;;;;7.40;5.72;;;;;;;-145.92;100.00;59847.09;1032117;28;20301;-74
2021/01/19 00:59:19;;;;;;;7.88;4.80;;;;;;;-145.92;100.00;59847.09;1024176;28;20512;-74
2021/01/19 00:59:50;;;;;;;10.32;5.47;;;;;;;-145.92;100.00;59847.09;1036118;28;20109;-74
2021/01/19 01:00:21;;;;;;;8.05;5.55;;;;;;;-145.92;100.00;59847.09;1024110;28;20263;-74
2021/01/19 01:00:54;;;;;;;11.82;5.38;;;;;;;-145.92;100.00;59847.09;1032025;28;20053;-74
2021/01/19 01:01:24;;;;;;;7.68;5.05;;;;;;;-145.92;100.00;59847.09;1028101;28;20769;-74
2021/01/19 01:01:55;;;;;;;7.45;5.25;;;;;;;-145.92;100.00;59847.09;1036299;28;20268;-74
2021/01/19 01:02:26;;;;;;;9.30;5.05;;;;;;;-145.92;100.00;59847.09;1036220;28;20026;-73
2021/01/19 01:02:56;;;;;;;9.95;5.43;;;;;;;-145.92;100.00;59847.09;1024066;29;20137;-74
2021/01/19 01:03:29;;;;;;;8.20;5.28;;;;;;;-145.92;100.00;59847.09;1032212;28;20026;-74
2021/01/19 01:04:09;;;;;;;9.02;5.35;;;;;;;-145.92;100.00;59847.09;1028416;28;20094;-74
2021/01/19 01:04:41;;;;;;;9.00;5.45;;;;;;;-145.92;100.00;59847.09;1023933;29;20319;-74
2021/01/19 01:05:12;;;;;;;8.02;5.47;;;;;;;-145.92;100.00;59847.09;1036267;28;20277;-74
2021/01/19 01:05:43;;;;;;;10.40;5.38;;;;;;;-145.92;100.00;59847.09;1024191;29;20275;-74
2021/01/19 01:06:15;;;;;;;10.45;5.65;;;;;;;-145.92;100.00;59847.09;1028174;28;20282;-74
2021/01/19 01:06:52;;;;;;;6.88;5.20;;;;;;;-145.92;100.00;59847.09;1028182;28;20150;-74
2021/01/19 01:07:23;;;;;;;9.38;5.40;;;;;;;-145.92;100.00;59847.09;1028080;28;20310;-74
2021/01/19 01:07:54;;;;;;;10.75;5.32;;;;;;;-145.92;100.00;59847.09;1028153;28;20262;-74
2021/01/19 01:08:25;;;;;;;8.70;6.13;;;;;;;-145.92;100.00;59847.09;1024332;28;20027;-74
2021/01/19 01:08:55;;;;;;;7.82;5.63;;;;;;;-145.92;100.00;59847.09;1028210;28;20262;-74
2021/01/19 01:09:26;;;;;;;11.98;6.38;;;;;;;-145.92;100.00;59847.09;1020157;28;20130;-74
2021/01/19 01:09:57;;;;;;;10.07;5.38;;;;;;;-145.92;100.00;59847.09;1028211;28;20037;-74
2021/01/19 01:10:28;;;;;;;8.93;6.32;;;;;;;-145.92;100.00;59847.09;1024189;29;20034;-74
2021/01/19 01:10:59;;;;;;;8.55;5.90;;;;;;;-145.92;100.00;59847.09;1032065;28;20027;-74
2021/01/19 01:11:37;;;;;;;9.60;5.82;;;;;;;-145.92;100.00;59847.09;1020392;29;20118;-73
2021/01/19 01:12:07;;;;;;;8.00;5.75;;;;;;;-145.92;100.00;59847.09;1028116;28;20081;-74
2021/01/19 01:12:40;;;;;;;7.68;6.10;;;;;;;-145.92;100.00;59847.09;1036359;28;20265;-74
2021/01/19 01:13:11;;;;;;;8.40;5.72;;;;;;;-145.92;100.00;59847.09;1024075;29;20278;-74
2021/01/19 01:13:42;;;;;;;8.95;5.63;;;;;;;-145.92;100.00;59847.09;1032157;28;20310;-73
2021/01/19 01:14:13;;;;;;;10.98;6.22;;;;;;;-145.92;100.00;59847.09;1032221;28;20261;-73
2021/01/19 01:14:44;;;;;;;8.77;5.97;;;;;;;-145.92;100.00;59847.09;1036129;28;20574;-74
2021/01/19 01:15:20;;;;;;;9.43;5.22;;;;;;;-145.92;100.00;59847.09;1032126;28;20274;-74
2021/01/19 01:15:51;;;;;;;7.82;5.82;;;;;;;-145.92;100.00;59847.09;1032095;28;20268;-74
2021/01/19 01:16:22;;;;;;;9.27;5.95;;;;;;;-145.92;100.00;59847.09;1032108;28;20030;-74
2021/01/19 01:16:53;;;;;;;8.18;5.45;;;;;;;-145.92;100.00;59847.09;1024158;28;20437;-74
2021/01/19 01:17:24;;;;;;;8.90;6.15;;;;;;;-145.92;100.00;59847.09;1031990;28;20800;-74
2021/01/19 01:17:55;;;;;;;7.57;5.43;;;;;;;-145.92;100.00;59847.09;1024094;29;20042;-74
2021/01/19 01:18:30;;;;;;;9.65;5.68;;;;;;;-145.92;100.00;59847.09;1032386;28;20057;-74
2021/01/19 01:19:01;;;;;;;12.02;6.18;;;;;;;-145.92;100.00;59847.09;1024138;28;20271;-74
2021/01/19 01:19:32;;;;;;;11.32;5.93;;;;;;;-145.92;100.00;59847.09;1032077;28;20262;-74
2021/01/19 01:20:06;;;;;;;9.43;6.00;;;;;;;-145.92;100.00;59847.09;1028077;28;20023;-74
2021/01/19 01:20:37;;;;;;;10.18;6.57;;;;;;;-145.92;100.00;59847.09;1032195;28;20261;-73
2021/01/19 01:21:10;;;;;;;8.93;6.43;;;;;;;-145.92;100.00;59847.09;1020178;29;20276;-74
2021/01/19 01:21:41;;;;;;;9.75;6.47;;;;;;;-145.92;100.00;59847.09;1028009;28;20282;-74
2021/01/19 01:22:12;;;;;;;10.90;6.72;;;;;;;-145.92;100.00;59847.09;1028126;28;20821;-74
2021/01/19 01:22:44;;;;;;;7.88;6.18;;;;;;;-145.92;100.00;59847.09;1036223;28;20276;-74
2021/01/19 01:23:15;;;;;;;9.95;6.47;;;;;;;-145.92;100.00;59847.09;1036226;28;20025;-74
2021/01/19 01:23:46;;;;;;;9.75;6.15;;;;;;;-145.92;100.00;59847.09;1028169;28;20290;-74
2021/01/19 01:24:17;;;;;;;9.80;7.18;;;;;;;-145.92;100.00;59847.09;1032214;28;20026;-74
2021/01/19 01:24:48;;;;;;;10.02;6.10;;;;;;;-145.92;100.00;59847.09;1028252;28;20030;-74
2021/01/19 01:25:19;;;;;;;11.27;6.18;;;;;;;-145.92;100.00;59847.09;1036144;28;20264;-74
2021/01/19 01:25:50;;;;;;;8.63;6.82;;;;;;;-145.92;100.00;59847.09;1032021;28;20285;-73
2021/01/19 01:26:23;;;;;;;8.68;6.30;;;;;;;-145.92;100.00;59847.09;1032055;28;20050;-74
2021/01/19 01:26:54;;;;;;;11.38;6.80;;;;;;;-145.92;100.00;59847.09;1028165;28;20538;-74
2021/01/19 01:27:27;;;;;;;9.02;6.40;;;;;;;-145.92;100.00;59847.09;1032144;28;20254;-74
2021/01/19 01:27:58;;;;;;;9.30;6.93;;;;;;;-145.92;100.00;59847.09;1031953;28;20030;-74
2021/01/19 01:28:30;;;;;;;11.93;7.45;;;;;;;-145.92;100.00;59847.09;1028226;28;20352;-73
2021/01/19 01:29:01;;;;;;;9.23;6.75;;;;;;;-145.92;100.00;59847.09;1024134;28;20325;-74
2021/01/19 01:29:32;;;;;;;8.90;6.63;;;;;;;-145.92;100.00;59847.09;1020363;29;20263;-74
2021/01/19 01:30:04;;;;;;;10.60;6.90;;;;;;;-145.92;100.00;59847.09;1031854;28;20265;-74
2021/01/19 01:30:35;;;;;;;8.52;6.35;;;;;;;-145.92;100.00;59847.09;1028104;28;20443;-74
2021/01/19 01:31:06;;;;;;;10.15;6.70;;;;;;;-145.92;100.00;59847.09;1028039;28;20301;-74
2021/01/19 01:31:38;;;;;;;10.52;7.18;;;;;;;-145.92;100.00;59847.09;1036147;28;20454;-74
2021/01/19 01:32:08;;;;;;;13.20;6.88;;;;;;;-145.92;100.00;59847.09;1028061;28;20030;-74
2021/01/19 01:32:49;;;;;;;10.50;7.28;;;;;;;-145.92;100.00;59847.09;1028074;28;20274;-74
2021/01/19 01:33:19;;;;;;;10.55;7.20;;;;;;;-145.92;100.00;59847.09;1020213;28;20378;-74
2021/01/19 01:33:50;;;;;;;9.30;6.68;;;;;;;-145.92;100.00;59847.09;1032265;28;20099;-74
2021/01/19 01:34:21;;;;;;;9.23;7.00;;;;;;;-145.92;100.00;59847.09;1020172;29;20089;-73
2021/01/19 01:34:52;;;;;;;9.00;6.50;;;;;;;-145.92;100.00;59847.09;1027916;28;20058;-74
2021/01/19 01:35:24;;;;;;;8.95;6.30;;;;;;;-145.92;100.00;59847.09;1028163;28;20121;-74
2021/01/19 01:35:55;;;;;;;9.32;6.74;;;;;;;-145.92;100.00;59847.09;1020175;29;20028;-73
2021/01/19 01:36:26;;;;;;;10.57;6.68;;;;;;;-145.92;100.00;59847.09;1032020;28;20058;-74
2021/01/19 01:36:57;;;;;;;12.32;7.57;;;;;;;-145.92;100.00;59847.09;1024062;29;20860;-73
2021/01/19 01:37:28;;;;;;;11.60;7.95;;;;;;;-145.92;100.00;59847.09;1027988;28;20309;-74
2021/01/19 01:37:59;;;;;;;10.82;7.15;;;;;;;-145.92;100.00;59847.09;1028126;28;20088;-74
2021/01/19 01:38:30;;;;;;;11.35;7.60;;;;;;;-145.92;100.00;59847.09;1036100;28;20435;-74
2021/01/19 01:39:01;;;;;;;8.93;6.45;;;;;;;-145.92;100.00;59847.09;1032050;28;20257;-74
2021/01/19 01:39:32;;;;;;;12.98;8.20;;;;;;;-145.92;100.00;59847.09;1028174;28;20033;-74
2021/01/19 01:40:03;;;;;;;11.02;7.20;;;;;;;-145.92;100.00;59847.09;1028107;28;20023;-74
2021/01/19 01:40:34;;;;;;;10.98;6.80;;;;;;;-145.92;100.00;59847.09;1028064;28;20431;-74
2021/01/19 01:41:12;;;;;;;10.98;6.90;;;;;;;-145.92;100.00;59847.09;1032010;28;20623;-74
2021/01/19 01:41:43;;;;;;;14.38;6.82;;;;;;;-145.92;100.00;59847.09;1020227;28;20835;-74
2021/01/19 01:42:20;;;;;;;11.70;7.88;;;;;;;-145.92;100.00;59847.09;1031992;28;20308;-74
2021/01/19 01:42:52;;;;;;;11.20;7.30;;;;;;;-145.92;100.00;59847.09;1020268;28;20411;-74
2021/01/19 01:43:23;;;;;;;9.10;6.75;;;;;;;-145.92;100.00;59847.09;1032209;28;20261;-74
2021/01/19 01:43:54;;;;;;;9.98;6.90;;;;;;;-145.92;100.00;59847.09;1024175;29;20262;-73
2021/01/19 01:44:25;;;;;;;10.15;7.00;;;;;;;-145.92;100.00;59847.09;1024062;29;20340;-74
2021/01/19 01:44:56;;;;;;;10.15;6.68;;;;;;;-145.92;100.00;59847.09;1032059;28;20050;-74
2021/01/19 01:45:27;;;;;;;13.07;7.35;;;;;;;-145.92;100.00;59847.09;1032098;28;20419;-73
2021/01/19 01:45:59;;;;;;;11.48;7.15;;;;;;;-145.92;100.00;59847.09;1028100;28;20054;-74
2021/01/19 01:46:34;;;;;;;11.77;6.53;;;;;;;-145.92;100.00;59847.09;1031779;28;20273;-74
2021/01/19 01:47:04;;;;;;;9.43;6.85;;;;;;;-145.92;100.00;59847.09;1032205;28;20266;-74
2021/01/19 01:47:35;;;;;;;11.48;7.35;;;;;;;-145.92;100.00;59847.09;1031994;28;20266;-74
2021/01/19 01:48:08;;;;;;;12.05;6.78;;;;;;;-145.92;100.00;59847.09;1028208;28;20034;-73
2021/01/19 01:48:39;;;;;;;10.30;7.57;;;;;;;-145.92;100.00;59847.09;1024251;28;20049;-73
2021/01/19 01:49:10;;;;;;;10.38;6.95;;;;;;;-145.92;100.00;59847.09;1036362;28;20313;-73
2021/01/19 01:49:42;;;;;;;9.93;7.22;;;;;;;-145.92;100.00;59847.09;1036244;28;20275;-73
2021/01/19 01:50:13;;;;;;;10.00;7.07;;;;;;;-145.92;100.00;59847.09;1032611;28;20746;-73
2021/01/19 01:50:43;;;;;;;12.63;8.02;;;;;;;-145.92;100.00;59847.09;1032100;28;20330;-73
2021/01/19 01:51:14;;;;;;;9.10;7.38;;;;;;;-145.92;100.00;59847.09;1040805;28;20335;-73
2021/01/19 01:51:45;;;;;;;9.32;6.72;;;;;;;-145.92;100.00;59847.09;1032645;28;20025;-73
2021/01/19 01:52:17;;;;;;;10.95;7.25;;;;;;;-145.92;100.00;59847.09;1028209;28;20086;-73
2021/01/19 01:52:47;;;;;;;10.93;6.75;;;;;;;-145.92;100.00;59847.09;1032463;28;20057;-73
2021/01/19 01:53:18;;;;;;;10.90;6.97;;;;;;;-145.92;100.00;59847.09;1036484;28;20253;-73
2021/01/19 01:53:50;;;;;;;9.75;7.00;;;;;;;-145.92;100.00;59847.09;1028443;28;20436;-73
2021/01/19 01:54:21;;;;;;;10.02;6.63;;;;;;;-145.92;100.00;59847.09;1020567;29;20267;-73
2021/01/19 01:54:52;;;;;;;10.40;7.22;;;;;;;-145.92;100.00;59847.09;1028146;28;20755;-73
2021/01/19 01:55:23;;;;;;;11.57;7.72;;;;;;;-145.92;100.00;59847.09;1032644;28;20250;-73
2021/01/19 01:55:53;;;;;;;10.55;7.22;;;;;;;-145.92;100.00;59847.09;1032577;28;20019;-73
2021/01/19 01:56:24;;;;;;;9.55;6.88;;;;;;;-145.92;100.00;59847.09;1028358;28;20027;-73
2021/01/19 01:56:55;;;;;;;9.57;7.22;;;;;;;-145.92;100.00;59847.09;1024382;29;20019;-73
2021/01/19 01:57:25;;;;;;;9.35;6.82;;;;;;;-145.92;100.00;59847.09;1027919;28;20053;-73
2021/01/19 01:57:56;;;;;;;9.63;7.53;;;;;;;-145.92;100.00;59847.09;1028422;28;20095;-73
2021/01/19 01:58:27;;;;;;;11.77;7.75;;;;;;;-145.92;100.00;59847.09;1024410;29;20114;-73
2021/01/19 01:58:58;;;;;;;10.15;6.90;;;;;;;-145.92;100.00;59847.09;1028248;28;20027;-73
2021/01/19 01:59:30;;;;;;;9.55;6.80;;;;;;;-145.92;100.00;59847.09;1024394;29;20019;-73
2021/01/19 02:00:04;;;;;;;12.63;8.30;;;;;;;-145.92;100.00;59847.09;1036529;28;20455;-73
2021/01/19 02:00:35;;;;;;;9.02;7.07;;;;;;;-145.92;100.00;59847.09;1024051;28;20612;-73
2021/01/19 02:01:06;;;;;;;11.27;7.15;;;;;;;-145.92;100.00;59847.09;1031714;28;20281;-73
2021/01/19 02:01:36;;;;;;;10.60;7.57;;;;;;;-145.92;100.00;59847.09;1024055;28;20069;-73
2021/01/19 02:02:10;;;;;;;10.70;7.70;;;;;;;-145.92;100.00;59847.09;1032095;28;20034;-73
2021/01/19 02:02:53;;;;;;;10.13;7.15;;;;;;;-145.92;100.00;59847.09;1036262;28;20029;-73
2021/01/19 02:03:23;;;;;;;9.02;6.84;;;;;;;-145.92;100.00;59847.09;1031887;28;20273;-73
2021/01/19 02:03:54;;;;;;;12.65;7.28;;;;;;;-145.92;100.00;59847.09;1027583;28;20471;-73
2021/01/19 02:04:25;;;;;;;10.20;7.07;;;;;;;-145.92;100.00;59847.09;1032016;28;20109;-73
2021/01/19 02:04:56;;;;;;;10.30;7.07;;;;;;;-145.92;100.00;59847.09;1036366;28;20418;-73
2021/01/19 02:05:27;;;;;;;9.95;6.43;;;;;;;-145.92;100.00;59847.09;1028015;28;20050;-74
2021/01/19 02:05:57;;;;;;;13.80;7.57;;;;;;;-145.92;100.00;59847.09;1036207;28;20029;-73
2021/01/19 02:06:30;;;;;;;12.75;7.28;;;;;;;-145.92;100.00;59847.09;1036473;28;20022;-74
2021/01/19 02:07:04;;;;;;;10.57;7.10;;;;;;;-145.92;100.00;59847.09;1032288;28;20065;-74
2021/01/19 02:07:38;;;;;;;9.98;7.24;;;;;;;-145.92;100.00;59847.09;1032143;28;20281;-74
2021/01/19 02:08:30;;;;;;;9.52;7.07;;;;;;;-145.92;100.00;59847.09;1020286;29;20063;-74
2021/01/19 02:09:07;;;;;;;8.74;6.90;;;;;;;-145.92;100.00;59847.09;1028201;28;20682;-74
2021/01/19 02:09:41;;;;;;;9.50;6.78;;;;;;;-145.92;100.00;59847.09;1023944;29;20041;-74
2021/01/19 02:10:23;;;;;;;10.18;7.10;;;;;;;-145.92;100.00;59847.09;1028261;28;20266;-74
2021/01/19 02:11:10;;;;;;;10.66;7.72;;;;;;;-145.92;100.00;59847.09;1028166;28;20269;-74
2021/01/19 02:11:49;;;;;;;10.40;7.08;;;;;;;-145.92;100.00;59847.09;1028256;28;20507;-74
2021/01/19 02:12:20;;;;;;;10.28;6.08;;;;;;;-145.92;100.00;59847.09;1040536;28;20371;-74
2021/01/19 02:13:03;;;;;;;10.40;7.30;;;;;;;-145.92;100.00;59847.09;1024875;28;20031;-73
2021/01/19 02:13:35;;;;;;;11.36;7.20;;;;;;;-145.92;100.00;59847.09;1029039;28;20708;-74
2021/01/19 02:14:23;;;;;;;11.72;7.44;;;;;;;-145.92;100.00;59847.09;1032889;28;20026;-74
2021/01/19 02:14:59;;;;;;;10.14;6.80;;;;;;;-145.92;100.00;59847.09;1020982;29;20167;-74
2021/01/19 02:15:35;;;;;;;12.50;7.82;;;;;;;-145.92;100.00;59847.09;1024930;28;20066;-74
2021/01/19 02:16:25;;;;;;;11.62;7.38;;;;;;;-145.92;100.00;59847.09;1028863;28;20027;-74
2021/01/19 02:17:00;;;;;;;10.05;7.38;;;;;;;-145.92;100.00;59847.09;1029003;28;20596;-74
2021/01/19 02:17:41;;;;;;;13.26;7.10;;;;;;;-145.92;100.00;59847.09;1028816;28;20031;-74
2021/01/19 02:18:26;;;;;;;8.74;6.66;;;;;;;-145.92;100.00;59847.09;1032771;28;20606;-74
2021/01/19 02:19:09;;;;;;;11.48;7.72;;;;;;;-145.92;100.00;59847.09;1028732;28;20026;-74
2021/01/19 02:19:50;;;;;;;11.72;7.12;;;;;;;-145.92;100.00;59847.09;1024908;28;20543;-74
2021/01/19 02:20:28;;;;;;;10.40;7.74;;;;;;;-145.92;100.00;59847.09;1028918;28;20411;-74
2021/01/19 02:21:09;;;;;;;12.72;7.08;;;;;;;-145.92;100.00;59847.09;1032821;28;20528;-74
2021/01/19 02:22:01;;;;;;;11.60;6.48;;;;;;;-145.92;100.00;59847.09;1028728;28;20031;-74
2021/01/19 02:22:46;;;;;;;11.58;7.38;;;;;;;-145.92;100.00;59847.09;1028723;28;20018;-74
2021/01/19 02:23:28;;;;;;;12.16;7.60;;;;;;;-145.92;100.00;59847.09;1041057;28;20025;-74
2021/01/19 02:24:11;;;;;;;13.02;7.10;;;;;;;-145.92;100.00;59847.09;1032686;28;20125;-74
2021/01/19 02:24:54;;;;;;;12.24;7.58;;;;;;;-145.92;100.00;59847.09;1032781;28;20522;-74
2021/01/19 02:25:40;;;;;;;11.56;7.14;;;;;;;-145.92;100.00;59847.09;1036819;28;20025;-74
2021/01/19 02:26:31;;;;;;;11.28;6.88;;;;;;;-145.92;100.00;59847.09;1020615;29;20028;-74
2021/01/19 02:27:24;;;;;;;12.00;7.16;;;;;;;-145.92;100.00;59847.09;1032942;28;20025;-74
2021/01/19 02:28:08;;;;;;;13.22;7.40;;;;;;;-145.92;100.00;59847.09;1020672;29;20024;-74
2021/01/19 02:28:46;;;;;;;11.96;7.68;;;;;;;-145.92;100.00;59847.09;1040966;28;20071;-74